Time;durP1;ratioP1;P1;durP2;ratioP2;P2;SDS_P1;SDS_P2;PMS_P1;PMS_P2;Temp;Humidity;BMP_temperature;BMP_pressure;BME280_temperature;BME280_humidity;BME280_pressure;Samples;Min_cycle;Max_cycle;Signal;HPM_P1;HPM_P2
2022/12/27 00:01:45;;;;;;;96.97;22.20;;;;;;;3.49;100.00;101753.30;1756033;80;21555;-88
2022/12/27 00:04:11;;;;;;;88.55;21.82;;;;;;;3.51;100.00;101758.47;1761734;80;20996;-90
2022/12/27 00:06:38;;;;;;;112.70;23.18;;;;;;;3.51;100.00;101761.12;1753373;80;21019;-90
2022/12/27 00:09:05;;;;;;;93.05;22.30;;;;;;;3.51;100.00;101753.95;1750213;81;21130;-87
2022/12/27 00:11:32;;;;;;;96.28;23.42;;;;;;;3.55;100.00;101753.90;1750646;80;21174;-93
2022/12/27 00:14:01;;;;;;;97.45;22.52;;;;;;;3.60;100.00;101747.52;1753388;80;21054;-88
2022/12/27 00:16:28;;;;;;;97.37;23.90;;;;;;;3.61;100.00;101747.00;1771218;80;21435;-88
2022/12/27 00:18:55;;;;;;;106.52;26.52;;;;;;;3.60;100.00;101755.52;1761231;80;21477;-89
2022/12/27 00:21:22;;;;;;;113.10;27.13;;;;;;;3.57;100.00;101757.73;1753113;80;21547;-93
2022/12/27 00:23:53;;;;;;;118.62;28.95;;;;;;;3.53;100.00;101746.62;1750766;80;22007;-90
2022/12/27 00:26:27;;;;;;;117.53;27.60;;;;;;;3.50;100.00;101735.47;1763850;80;21064;-89
2022/12/27 00:29:22;;;;;;;123.80;28.05;;;;;;;3.49;100.00;101730.66;1766074;80;21068;-88
2022/12/27 00:31:49;;;;;;;113.42;27.95;;;;;;;3.51;100.00;101732.64;1771226;80;21491;-89
2022/12/27 00:34:15;;;;;;;116.00;28.57;;;;;;;3.42;100.00;101735.08;1754720;80;21162;-88
2022/12/27 00:36:41;;;;;;;122.37;28.23;;;;;;;3.41;100.00;101736.92;1763023;80;21078;-91
2022/12/27 00:42:49;;;;;;;122.37;28.70;;;;;;;3.44;100.00;101726.89;1752175;80;21094;-90
2022/12/27 00:45:15;;;;;;;114.65;27.77;;;;;;;3.45;100.00;101718.73;1761836;80;21059;-89
2022/12/27 00:47:54;;;;;;;104.87;27.75;;;;;;;3.45;100.00;101709.40;1755755;80;21492;-90
2022/12/27 00:50:20;;;;;;;107.65;26.15;;;;;;;3.49;100.00;101718.66;1748512;80;21164;-89
2022/12/27 00:52:46;;;;;;;107.75;25.68;;;;;;;3.45;100.00;101713.40;1759067;80;21000;-94
2022/12/27 00:55:13;;;;;;;104.83;26.37;;;;;;;3.48;100.00;101708.20;1749930;80;21169;-89
2022/12/27 00:57:39;;;;;;;113.65;27.60;;;;;;;3.49;100.00;101699.19;1768771;80;21092;-89
2022/12/27 01:00:07;;;;;;;101.85;25.85;;;;;;;3.51;100.00;101691.34;1779121;80;21027;-88
2022/12/27 01:02:33;;;;;;;97.08;25.85;;;;;;;3.51;100.00;101684.67;1752544;80;21002;-87
2022/12/27 01:04:59;;;;;;;97.47;25.55;;;;;;;3.53;100.00;101683.14;1764739;80;20996;-90
2022/12/27 01:07:26;;;;;;;106.03;25.88;;;;;;;3.52;100.00;101679.66;1765625;80;21027;-91
2022/12/27 01:09:53;;;;;;;113.32;26.25;;;;;;;3.52;100.00;101674.33;1760750;80;21074;-88
2022/12/27 01:12:19;;;;;;;80.95;21.40;;;;;;;3.49;100.00;101676.55;1763627;80;21039;-89
2022/12/27 01:14:45;;;;;;;84.55;20.77;;;;;;;3.53;100.00;101677.81;1765243;80;21694;-89
2022/12/27 01:17:12;;;;;;;71.87;19.32;;;;;;;3.53;100.00;101672.48;1763200;80;20992;-89
2022/12/27 01:19:38;;;;;;;69.97;18.40;;;;;;;3.56;100.00;101676.95;1767747;80;21059;-91
2022/12/27 01:22:06;;;;;;;47.67;15.40;;;;;;;3.57;100.00;101677.77;1778568;80;21054;-89
2022/12/27 01:24:33;;;;;;;52.95;16.30;;;;;;;3.57;100.00;101672.45;1772454;80;21039;-89
2022/12/27 01:27:00;;;;;;;49.00;14.73;;;;;;;3.57;100.00;101671.94;1763369;80;21135;-88
2022/12/27 01:29:26;;;;;;;46.37;13.60;;;;;;;3.56;100.00;101672.95;1767322;80;21032;-90
2022/12/27 01:31:52;;;;;;;48.35;13.88;;;;;;;3.56;100.00;101676.95;1769167;80;21396;-89
2022/12/27 01:34:18;;;;;;;45.75;14.07;;;;;;;3.49;100.00;101669.88;1778895;80;20999;-86
2022/12/27 01:36:45;;;;;;;45.55;13.62;;;;;;;3.47;100.00;101667.90;1759562;80;21555;-89
2022/12/27 01:39:15;;;;;;;45.48;14.03;;;;;;;3.50;100.00;101669.70;1779547;80;21079;-89
2022/12/27 01:44:45;;;;;;;42.48;13.15;;;;;;;3.50;100.00;101655.53;1771153;80;21011;-89
2022/12/27 01:47:41;;;;;;;46.88;13.00;;;;;;;3.48;100.00;101661.58;1769391;80;21036;-89
2022/12/27 01:50:32;;;;;;;35.98;11.55;;;;;;;3.43;100.00;101653.31;1761943;80;21025;-89
2022/12/27 01:53:07;;;;;;;37.03;11.73;;;;;;;3.39;100.00;101654.19;1772749;80;21874;-89
2022/12/27 01:55:41;;;;;;;36.58;12.23;;;;;;;3.49;100.00;101664.04;1765546;80;21035;-87
2022/12/27 01:58:25;;;;;;;30.68;10.88;;;;;;;3.50;100.00;101660.37;1763241;80;21099;-90
2022/12/27 02:04:33;;;;;;;37.53;12.43;;;;;;;3.40;100.00;101647.84;1615295;84;21032;-96
2022/12/27 02:07:00;;;;;;;33.80;12.13;;;;;;;3.37;100.00;101649.55;1586331;89;21068;-92
2022/12/27 02:09:44;;;;;;;33.65;11.33;;;;;;;3.38;100.00;101644.53;1583938;89;21051;-89
2022/12/27 02:15:50;;;;;;;28.92;10.13;;;;;;;3.29;100.00;101645.64;1588403;89;21666;-87
2022/12/27 02:25:51;;;;;;;28.98;10.78;;;;;;;3.23;100.00;101635.22;1609599;86;20940;-86
2022/12/27 02:29:04;;;;;;;30.08;10.60;;;;;;;3.21;100.00;101627.09;1610654;87;21068;-86
2022/12/27 02:31:40;;;;;;;28.77;10.82;;;;;;;3.17;100.00;101621.31;1621146;85;21052;-89
2022/12/27 02:34:18;;;;;;;35.80;12.82;;;;;;;3.16;100.00;101619.16;1633515;86;21038;-87
2022/12/27 02:36:45;;;;;;;31.77;11.78;;;;;;;3.13;100.00;101614.21;1629665;87;21150;-89
2022/12/27 02:39:14;;;;;;;34.92;13.15;;;;;;;3.14;100.00;101614.52;1634218;87;21137;-89
2022/12/27 02:53:55;;;;;;;39.45;14.68;;;;;;;3.09;100.00;101598.30;1633605;87;21008;-90
2022/12/27 03:08:56;;;;;;;40.25;15.08;;;;;;;3.03;100.00;101609.69;1502647;94;21047;-89
2022/12/27 03:18:05;;;;;;;45.52;15.68;;;;;;;2.97;100.00;101603.74;1421590;99;21165;-89
2022/12/27 03:26:04;;;;;;;38.67;14.45;;;;;;;3.02;100.00;101590.71;1419150;100;21151;-92
2022/12/27 03:34:34;;;;;;;36.70;13.18;;;;;;;3.04;100.00;101590.03;1485573;95;21127;-88
2022/12/27 03:40:20;;;;;;;48.58;16.60;;;;;;;3.07;100.00;101585.66;1434380;98;21210;-89
2022/12/27 03:43:09;;;;;;;46.95;15.28;;;;;;;3.07;100.00;101590.17;1428776;98;21153;-87
2022/12/27 03:49:09;;;;;;;43.58;15.68;;;;;;;3.01;100.00;101582.92;1453360;95;21206;-90
2022/12/27 03:52:10;;;;;;;44.63;15.95;;;;;;;2.97;100.00;101575.78;1461851;95;21046;-87
2022/12/27 03:54:42;;;;;;;41.58;15.28;;;;;;;2.96;100.00;101569.64;1487356;93;21111;-88
2022/12/27 03:57:13;;;;;;;49.75;16.90;;;;;;;2.99;100.00;101568.96;1514275;94;21304;-89
2022/12/27 03:59:39;;;;;;;45.15;16.17;;;;;;;3.02;100.00;101568.59;1499814;95;21128;-90
2022/12/27 04:02:07;;;;;;;46.55;17.02;;;;;;;3.02;100.00;101568.08;1517506;92;21200;-87
2022/12/27 04:04:35;;;;;;;45.25;16.57;;;;;;;3.01;100.00;101567.77;1533075;93;21131;-95
2022/12/27 04:07:01;;;;;;;41.95;16.45;;;;;;;3.06;100.00;101572.04;1531904;92;21117;-90
2022/12/27 04:36:55;;;;;;;56.20;18.67;;;;;;;3.21;100.00;101527.22;1563723;90;21057;-88
2022/12/27 04:39:21;;;;;;;47.53;16.32;;;;;;;3.21;100.00;101540.05;1577790;87;21680;-88
2022/12/27 04:54:55;;;;;;;45.25;15.93;;;;;;;3.17;100.00;101557.40;1633827;86;21016;-88
2022/12/27 04:55:31;;;;;;;71.67;22.90;;;;;;;3.07;100.00;101541.73;1633529;86;21000;-89
2022/12/27 04:57:58;;;;;;;56.70;19.00;;;;;;;3.08;100.00;101543.88;1628787;86;21165;-89
2022/12/27 05:03:20;;;;;;;57.78;19.07;;;;;;;3.02;100.00;101543.30;1623537;86;21130;-90
2022/12/27 05:05:49;;;;;;;64.45;20.45;;;;;;;3.02;100.00;101536.13;1631922;86;21037;-90
2022/12/27 05:13:59;;;;;;;61.40;19.37;;;;;;;2.98;100.00;101534.04;1626991;86;21531;-89
2022/12/27 05:16:38;;;;;;;105.83;28.17;;;;;;;2.98;100.00;101535.37;1624770;86;21142;-89
2022/12/27 05:26:28;;;;;;;71.22;20.12;;;;;;;2.87;100.00;101532.16;1625084;87;21015;-89
2022/12/27 05:32:35;;;;;;;70.45;21.12;;;;;;;2.79;100.00;101528.77;1650033;85;21575;-92
2022/12/27 05:35:02;;;;;;;75.75;23.55;;;;;;;2.75;100.00;101530.16;1652371;86;21050;-89
2022/12/27 05:37:28;;;;;;;62.93;21.17;;;;;;;2.72;100.00;101525.52;1652356;86;21902;-87
2022/12/27 05:39:54;;;;;;;55.60;17.87;;;;;;;2.70;100.00;101526.20;1651372;86;21518;-90
2022/12/27 05:45:36;;;;;;;68.28;21.37;;;;;;;2.68;100.00;101528.75;1655541;86;21109;-89
2022/12/27 05:48:03;;;;;;;70.62;22.58;;;;;;;2.70;100.00;101531.52;1654308;85;21521;-90
2022/12/27 05:50:30;;;;;;;60.88;19.92;;;;;;;2.71;100.00;101523.88;1656132;86;21926;-89
2022/12/27 05:52:56;;;;;;;60.67;20.43;;;;;;;2.71;100.00;101521.73;1639294;86;21125;-95
2022/12/27 05:55:22;;;;;;;50.98;17.62;;;;;;;2.68;100.00;101523.43;1635232;86;21388;-90
2022/12/27 05:57:49;;;;;;;48.28;18.00;;;;;;;2.68;100.00;101522.92;1632268;87;21106;-87
2022/12/27 06:00:15;;;;;;;47.38;15.50;;;;;;;2.67;100.00;101515.92;1630780;87;20982;-89
2022/12/27 06:02:42;;;;;;;41.88;14.58;;;;;;;2.66;100.00;101518.79;1631142;86;21163;-90
2022/12/27 06:05:09;;;;;;;53.25;17.17;;;;;;;2.62;100.00;101518.34;1631787;87;21570;-87
2022/12/27 06:07:37;;;;;;;44.98;16.45;;;;;;;2.61;100.00;101519.84;1627894;86;21078;-89
2022/12/27 06:10:06;;;;;;;53.40;17.48;;;;;;;2.59;100.00;101512.05;1623264;85;21515;-89
2022/12/27 06:12:32;;;;;;;46.83;15.75;;;;;;;2.60;100.00;101505.72;1629025;87;21076;-90
2022/12/27 06:14:58;;;;;;;34.83;12.58;;;;;;;2.58;100.00;101498.41;1632332;86;21143;-88
2022/12/27 06:17:25;;;;;;;31.23;11.48;;;;;;;2.58;100.00;101505.58;1635667;86;21569;-89
2022/12/27 06:19:51;;;;;;;28.42;9.58;;;;;;;2.53;100.00;101492.84;1606871;86;21158;-92
2022/12/27 06:22:17;;;;;;;23.80;9.45;;;;;;;2.50;100.00;101487.37;1625496;86;21105;-87
2022/12/27 06:24:43;;;;;;;24.25;10.13;;;;;;;2.48;100.00;101481.41;1631829;87;21085;-89
2022/12/27 06:30:51;;;;;;;23.55;9.45;;;;;;;2.46;100.00;101470.12;1655036;85;21042;-88
2022/12/27 06:33:17;;;;;;;27.40;11.43;;;;;;;2.41;100.00;101465.03;1658756;86;20994;-88
2022/12/27 06:35:44;;;;;;;31.65;13.48;;;;;;;2.35;100.00;101466.59;1652399;86;21645;-90
2022/12/27 06:38:10;;;;;;;35.60;14.45;;;;;;;2.36;100.00;101466.92;1633312;86;21120;-88
2022/12/27 06:40:36;;;;;;;32.73;13.72;;;;;;;2.34;100.00;101464.95;1628089;86;21042;-90
2022/12/27 06:43:03;;;;;;;32.25;13.55;;;;;;;2.32;100.00;101460.81;1637706;86;21130;-91
2022/12/27 06:45:29;;;;;;;35.10;14.85;;;;;;;2.30;100.00;101460.20;1625735;86;21519;-89
2022/12/27 06:47:55;;;;;;;36.55;15.35;;;;;;;2.30;100.00;101457.54;1608548;87;21542;-89
2022/12/27 06:50:22;;;;;;;33.42;13.62;;;;;;;2.30;100.00;101454.37;1623041;87;21103;-89
2022/12/27 06:52:48;;;;;;;30.30;12.50;;;;;;;2.31;100.00;101457.34;1612383;88;21087;-88
2022/12/27 06:58:55;;;;;;;35.10;13.35;;;;;;;2.33;100.00;101450.01;1610387;86;21232;-89
2022/12/27 07:01:25;;;;;;;27.00;11.57;;;;;;;2.34;100.00;101441.52;1611562;87;21584;-90
2022/12/27 07:03:55;;;;;;;30.88;13.13;;;;;;;2.35;100.00;101437.84;1632001;86;21058;-89
2022/12/27 11:24:59;;;;;;;42.98;15.75;;;;;;;3.18;100.00;100979.33;1818712;76;26123;-86
2022/12/27 11:27:28;;;;;;;100.90;39.53;;;;;;;3.80;100.00;100977.86;1787497;78;20959;-87
2022/12/27 11:29:57;;;;;;;69.80;26.75;;;;;;;4.04;100.00;100969.73;1796111;77;22020;-86
2022/12/27 11:32:25;;;;;;;59.50;19.52;;;;;;;4.14;100.00;100967.97;1793744;78;21030;-86
2022/12/27 11:34:54;;;;;;;42.13;15.53;;;;;;;4.39;100.00;100964.95;1791043;78;20992;-85
2022/12/27 11:37:25;;;;;;;44.08;16.23;;;;;;;4.48;100.00;100962.87;1781969;78;21243;-86
2022/12/27 11:40:22;;;;;;;52.62;16.40;;;;;;;4.63;100.00;100952.75;1770329;79;21078;-87
2022/12/27 11:42:54;;;;;;;46.23;16.55;;;;;;;4.75;100.00;100953.72;1741101;81;21111;-87
2022/12/27 11:49:05;;;;;;;42.45;15.28;;;;;;;5.05;100.00;100946.48;1729988;80;21639;-91
2022/12/27 11:55:52;;;;;;;40.23;14.87;;;;;;;5.21;100.00;100945.16;1721829;82;21548;-89
2022/12/27 11:58:43;;;;;;;35.08;13.83;;;;;;;5.28;100.00;100945.11;1618127;86;21150;-88
2022/12/27 12:01:17;;;;;;;33.75;11.88;;;;;;;5.31;100.00;100940.14;1615980;87;21596;-93
2022/12/27 12:04:24;;;;;;;25.23;10.08;;;;;;;5.42;100.00;100934.11;1617977;86;21065;-88
2022/12/27 12:07:38;;;;;;;22.42;9.10;;;;;;;5.42;100.00;100938.64;1626219;86;21044;-86
2022/12/27 12:10:10;;;;;;;;;;;;;;;5.40;100.00;100940.19;1626495;86;21112;-88
2022/12/27 12:13:09;;;;;;;19.52;7.85;;;;;;;5.46;100.00;100933.97;1568841;88;21144;-90
2022/12/27 12:16:13;;;;;;;16.32;6.95;;;;;;;5.55;100.00;100930.51;1573945;87;21629;-88
2022/12/27 12:19:18;;;;;;;13.60;5.55;;;;;;;5.58;100.00;100926.58;1580317;87;21036;-93
2022/12/27 12:22:05;;;;;;;13.10;5.72;;;;;;;5.60;100.00;100925.33;1590481;87;21649;-88
2022/12/27 12:25:09;;;;;;;14.95;5.17;;;;;;;5.62;100.00;100926.46;1588884;87;21103;-85
2022/12/27 12:27:55;;;;;;;11.20;5.20;;;;;;;5.62;100.00;100931.81;1611387;87;21240;-87
2022/12/27 12:30:49;;;;;;;12.95;5.10;;;;;;;5.61;100.00;100931.48;1596339;87;21173;-86
2022/12/27 12:37:23;;;;;;;12.33;5.55;;;;;;;5.64;100.00;100927.04;1658452;83;21292;-91
2022/12/27 12:43:36;;;;;;;17.07;7.20;;;;;;;5.75;100.00;100927.67;1687637;84;21090;-88
2022/12/27 12:46:14;;;;;;;25.32;9.10;;;;;;;5.77;100.00;100930.95;1613464;88;21049;-87
2022/12/27 12:49:11;;;;;;;21.60;8.53;;;;;;;5.78;100.00;100932.58;1530658;93;21158;-87
2022/12/27 12:52:02;;;;;;;21.15;8.38;;;;;;;5.83;100.00;100934.61;1564701;89;21615;-90
2022/12/27 12:58:43;;;;;;;27.82;9.20;;;;;;;5.95;100.00;100932.06;1560224;91;21711;-87
2022/12/27 13:01:42;;;;;;;22.45;8.73;;;;;;;5.96;100.00;100927.81;1561309;91;21051;-87
2022/12/27 13:08:06;;;;;;;22.10;9.63;;;;;;;6.02;100.00;100922.91;1567565;90;21059;-88
2022/12/27 13:10:57;;;;;;;26.60;10.15;;;;;;;6.05;100.00;100920.31;1561796;89;21360;-89
2022/12/27 13:13:57;;;;;;;26.62;10.98;;;;;;;6.08;100.00;100920.68;1572194;91;21158;-88
2022/12/27 13:16:49;;;;;;;27.60;11.78;;;;;;;6.11;100.00;100914.08;1563640;90;21689;-88
2022/12/27 13:20:09;;;;;;;32.60;12.35;;;;;;;6.09;100.00;100912.16;1563682;90;21043;-87
2022/12/27 13:22:58;;;;;;;33.85;13.75;;;;;;;6.17;100.00;100913.19;1568010;86;21705;-87
2022/12/27 13:26:02;;;;;;;35.52;13.95;;;;;;;6.19;100.00;100902.27;1657656;85;21571;-87
2022/12/27 13:28:55;;;;;;;35.00;14.85;;;;;;;6.21;100.00;100897.00;1659619;85;21716;-87
2022/12/27 13:31:50;;;;;;;35.93;14.50;;;;;;;6.24;100.00;100903.77;1595863;88;21146;-87
2022/12/27 13:34:39;;;;;;;40.17;15.28;;;;;;;6.26;100.00;100897.13;1595287;88;21855;-88
2022/12/27 13:37:28;;;;;;;40.80;15.35;;;;;;;6.27;100.00;100896.62;1595818;88;21210;-87
2022/12/27 13:40:22;;;;;;;40.67;15.50;;;;;;;6.30;100.00;100898.33;1596640;88;21133;-87
2022/12/27 13:43:04;;;;;;;;;;;;;;;6.34;100.00;100904.05;1529412;92;21328;-87
2022/12/27 13:46:03;;;;;;;41.37;16.05;;;;;;;6.34;100.00;100896.02;1529862;92;20191;-89
2022/12/27 13:49:04;;;;;;;46.50;17.55;;;;;;;6.40;100.00;100891.10;1515848;92;21080;-93
2022/12/27 13:51:48;;;;;;;45.95;16.80;;;;;;;6.41;100.00;100894.59;1546614;88;21152;-92
2022/12/27 13:54:54;;;;;;;48.65;18.77;;;;;;;6.42;100.00;100889.03;1597736;88;21178;-87
2022/12/27 13:57:40;;;;;;;46.18;18.65;;;;;;;6.44;100.00;100892.30;1598322;89;21542;-95
2022/12/27 14:00:27;;;;;;;45.08;18.50;;;;;;;6.46;100.00;100884.84;1596228;88;21065;-88
2022/12/27 14:03:13;;;;;;;53.60;20.40;;;;;;;6.50;100.00;100882.53;1601797;88;21093;-88
2022/12/27 14:06:25;;;;;;;49.73;19.57;;;;;;;6.51;100.00;100886.33;1561194;90;21141;-90
2022/12/27 14:09:31;;;;;;;48.33;19.23;;;;;;;6.50;100.00;100885.20;1602775;87;21170;-86
2022/12/27 14:12:52;;;;;;;;;;;;;;;;;;;;;
2022/12/27 14:19:17;;;;;;;51.08;20.20;;;;;;;6.56;100.00;100878.98;1529715;92;21073;-88
2022/12/27 14:22:00;;;;;;;49.73;20.30;;;;;;;6.60;100.00;100872.92;1569317;89;21141;-86
2022/12/27 14:25:09;;;;;;;57.75;20.85;;;;;;;6.59;100.00;100864.61;1560810;87;21527;-87
2022/12/27 14:28:00;;;;;;;50.08;19.50;;;;;;;6.63;100.00;100866.30;1605363;87;21124;-86
2022/12/27 14:30:46;;;;;;;46.95;18.50;;;;;;;6.63;100.00;100866.30;1596758;88;21092;-88
2022/12/27 14:37:12;;;;;;;55.73;19.27;;;;;;;6.67;100.00;100856.77;1496654;93;21159;-85
2022/12/27 14:40:08;;;;;;;50.30;19.07;;;;;;;6.70;100.00;100859.52;1494060;94;21651;-89
2022/12/27 14:42:40;;;;;;;49.10;18.52;;;;;;;6.72;100.00;100859.58;1459699;95;21156;-88
2022/12/27 14:49:26;;;;;;;47.33;17.90;;;;;;;6.73;100.00;100852.36;1521184;92;21130;-87
2022/12/27 15:02:29;;;;;;;46.53;17.57;;;;;;;6.89;100.00;100866.98;1473583;94;21159;-93
2022/12/27 15:05:26;;;;;;;43.83;17.50;;;;;;;6.91;100.00;100861.70;1479402;94;22253;-87
2022/12/27 15:16:16;;;;;;;;;;;;;;;;;;;;;
2022/12/27 15:19:18;;;;;;;41.88;14.75;;;;;;;6.96;100.00;100847.07;1552258;90;21107;-87
2022/12/27 15:22:44;;;;;;;36.58;14.75;;;;;;;6.97;100.00;100844.70;1551969;90;21171;-86
2022/12/27 15:25:46;;;;;;;39.92;14.78;;;;;;;7.01;100.00;100839.17;1538730;90;21174;-87
2022/12/27 15:28:44;;;;;;;36.45;15.30;;;;;;;7.07;100.00;100836.63;1562316;90;21135;-84
2022/12/27 15:31:15;;;;;;;35.05;15.40;;;;;;;7.07;100.00;100837.44;1473919;95;21158;-91
2022/12/27 15:34:24;;;;;;;35.63;14.98;;;;;;;7.08;100.00;100835.03;1476428;95;21596;-85
2022/12/27 15:36:58;;;;;;;38.75;15.60;;;;;;;7.08;100.00;100843.08;1528012;92;21184;-92
2022/12/27 15:39:41;;;;;;;38.42;15.43;;;;;;;7.04;100.00;100837.37;1533741;92;21245;-86
2022/12/27 15:46:54;;;;;;;45.17;16.95;;;;;;;7.10;100.00;100843.67;1540929;91;21215;-85
2022/12/27 15:50:14;;;;;;;40.40;15.72;;;;;;;7.14;100.00;100838.13;1521776;92;21078;-85
2022/12/27 15:53:39;;;;;;;39.85;14.90;;;;;;;7.17;100.00;100836.33;1484203;95;21741;-85
2022/12/27 20:15:14;;;;;;;112.90;33.30;;;;;;;6.10;100.00;100755.94;1810552;78;25810;-87
2022/12/27 20:17:52;;;;;;;;;;;;;;;;;;;;;
2022/12/27 20:20:11;;;;;;;95.80;28.17;;;;;;;7.45;100.00;100751.20;1640790;86;21168;-93
2022/12/27 20:22:38;;;;;;;93.42;27.02;;;;;;;7.64;100.00;100752.39;1632938;86;21076;-86
2022/12/27 20:25:10;;;;;;;100.70;27.10;;;;;;;7.56;100.00;100752.25;1632180;86;21305;-88
2022/12/27 20:27:46;;;;;;;102.62;26.30;;;;;;;7.72;100.00;100756.05;1638536;86;21054;-87
2022/12/27 20:30:21;;;;;;;81.72;24.52;;;;;;;7.72;100.00;100756.86;1574504;89;21219;-87
2022/12/27 20:32:56;;;;;;;86.42;22.95;;;;;;;7.92;100.00;100755.13;1579128;90;21068;-86
2022/12/27 20:39:06;;;;;;;74.00;21.20;;;;;;;7.99;100.00;100756.33;1580726;90;21072;-87
2022/12/27 20:41:34;;;;;;;77.62;22.22;;;;;;;7.87;100.00;100755.55;1575500;90;21224;-87
2022/12/27 20:44:12;;;;;;;71.97;22.37;;;;;;;7.86;100.00;100763.32;1575866;90;21164;-87
2022/12/27 20:46:39;;;;;;;75.03;22.32;;;;;;;7.94;100.00;100760.23;1558294;90;21060;-86
2022/12/27 20:49:10;;;;;;;75.60;21.77;;;;;;;7.77;100.00;100756.70;1572065;89;21545;-87
2022/12/27 20:51:37;;;;;;;81.67;23.18;;;;;;;7.82;100.00;100754.09;1577241;89;21664;-84
2022/12/27 20:54:41;;;;;;;;;;;;;;;;;;;;;
2022/12/27 20:57:02;;;;;;;80.05;22.52;;;;;;;7.77;100.00;100753.48;1548055;91;21604;-87
2022/12/27 20:59:42;;;;;;;78.50;21.57;;;;;;;7.77;100.00;100760.19;1532718;91;21137;-84
2022/12/27 21:02:16;;;;;;;77.08;21.97;;;;;;;7.84;100.00;100761.39;1484010;95;21177;-85
2022/12/27 21:07:30;;;;;;;71.17;21.25;;;;;;;7.89;100.00;100761.50;1423603;96;21191;-88
2022/12/27 21:15:13;;;;;;;;;;;;;;;7.67;100.00;100759.44;1317773;106;21647;-88
2022/12/27 21:17:49;;;;;;;57.80;17.60;;;;;;;7.80;100.00;100762.93;1307066;106;20221;-86
2022/12/27 21:37:03;;;;;;;;;;;;;;;;;;;;;
2022/12/27 21:39:34;;;;;;;61.65;18.98;;;;;;;7.74;100.00;100768.72;1212097;114;21695;-87
2022/12/27 21:59:55;;;;;;;53.00;18.02;;;;;;;7.52;100.00;100791.30;1218805;115;21311;-87
2022/12/27 22:02:23;;;;;;;60.25;19.73;;;;;;;7.43;100.00;100791.36;1228898;113;21292;-86
2022/12/27 22:11:02;;;;;;;51.05;18.10;;;;;;;7.37;100.00;100786.41;1253547;112;21176;-86
2022/12/27 22:13:38;;;;;;;52.85;17.80;;;;;;;7.37;100.00;100777.55;1225607;114;21250;-86
2022/12/27 22:16:20;;;;;;;60.33;18.23;;;;;;;7.34;100.00;100776.68;1226314;114;21811;-86
2022/12/27 22:19:00;;;;;;;48.97;16.27;;;;;;;7.28;100.00;100756.98;1235175;113;21222;-84
2022/12/27 22:21:35;;;;;;;53.17;18.23;;;;;;;7.28;100.00;100756.98;1284044;110;21874;-83
2022/12/27 22:24:07;;;;;;;54.40;18.73;;;;;;;7.37;100.00;100783.72;1265711;111;21224;-86
2022/12/27 22:26:42;;;;;;;48.13;17.12;;;;;;;7.36;100.00;100787.47;1224853;115;21235;-86
2022/12/27 22:40:12;;;;;;;42.13;15.03;;;;;;;7.37;100.00;100793.64;1233130;114;21224;-85
2022/12/27 22:42:48;;;;;;;44.60;14.55;;;;;;;7.28;100.00;100790.48;1252528;111;21246;-85
2022/12/27 22:45:19;;;;;;;36.00;13.25;;;;;;;7.31;100.00;100790.02;1237349;113;21375;-92
2022/12/27 22:48:06;;;;;;;;;;;;;;;;;;;;;
2022/12/27 22:50:24;;;;;;;40.03;13.00;;;;;;;7.11;100.00;100805.63;1256793;109;21200;-88
2022/12/27 22:52:57;;;;;;;31.73;12.70;;;;;;;7.06;100.00;100807.67;1245013;113;21368;-88
2022/12/27 22:59:21;;;;;;;39.42;12.68;;;;;;;7.14;100.00;100823.39;1209275;116;21301;-88
2022/12/27 23:01:54;;;;;;;40.92;14.70;;;;;;;7.09;100.00;100835.84;1178485;119;21265;-86
2022/12/27 23:04:21;;;;;;;33.13;12.68;;;;;;;7.09;100.00;100838.03;1187150;119;21590;-86
2022/12/27 23:18:02;;;;;;;26.65;10.53;;;;;;;6.90;100.00;100841.82;1219698;114;21233;-86
2022/12/27 23:20:33;;;;;;;23.52;8.70;;;;;;;6.81;100.00;100858.21;1205880;115;21268;-87
2022/12/27 23:23:08;;;;;;;18.87;7.33;;;;;;;6.85;100.00;100861.77;1254400;109;21773;-87
2022/12/27 23:32:04;;;;;;;10.88;3.40;;;;;;;6.58;100.00;100860.28;1289816;109;21380;-82
2022/12/27 23:34:38;;;;;;;8.00;3.40;;;;;;;6.33;100.00;100875.66;1280326;108;21218;-87
2022/12/27 23:40:54;;;;;;;6.00;2.85;;;;;;;6.26;100.00;100877.05;1244779;112;21185;-88
2022/12/27 23:43:30;;;;;;;7.22;3.00;;;;;;;6.13;100.00;100879.38;1236969;113;22198;-86
2022/12/27 23:46:28;;;;;;;;;;;;;;;;;;;;;
2022/12/27 23:48:46;;;;;;;6.20;3.08;;;;;;;6.03;100.00;100898.30;1211274;116;21668;-91
2022/12/27 23:51:13;;;;;;;5.60;2.77;;;;;;;6.01;100.00;100909.25;1209081;116;21176;-89
2022/12/27 23:53:46;;;;;;;5.70;2.83;;;;;;;5.94;100.00;100908.48;1229037;113;21481;-86
2022/12/27 23:56:22;;;;;;;6.45;2.80;;;;;;;5.85;100.00;100921.32;1244837;112;21371;-88
